sensor_id;sensor_type;location;lat;lon;timestamp;pressure;altitude;pressure_sealevel;temperature;humidity
19748;BME280;10032;51.386;12.516;2023-04-23T00:01:51;99388.13;;;15.62;100.00
19748;BME280;10032;51.386;12.516;2023-04-23T00:04:17;99384.88;;;15.60;100.00
19748;BME280;10032;51.386;12.516;2023-04-23T00:06:45;99382.16;;;15.60;100.00
19748;BME280;10032;51.386;12.516;2023-04-23T00:09:13;99377.78;;;15.59;100.00
19748;BME280;10032;51.386;12.516;2023-04-23T00:11:40;99381.63;;;15.58;100.00
19748;BME280;10032;51.386;12.516;2023-04-23T00:14:05;99373.72;;;15.57;100.00
19748;BME280;10032;51.386;12.516;2023-04-23T00:16:31;99375.66;;;15.56;100.00
19748;BME280;10032;51.386;12.516;2023-04-23T00:18:56;99382.25;;;15.55;100.00
19748;BME280;10032;51.386;12.516;2023-04-23T00:21:22;99367.47;;;15.56;100.00
19748;BME280;10032;51.386;12.516;2023-04-23T00:23:47;99373.72;;;15.57;100.00
19748;BME280;10032;51.386;12.516;2023-04-23T00:26:13;99369.72;;;15.54;100.00
19748;BME280;10032;51.386;12.516;2023-04-23T00:28:38;99366.44;;;15.52;100.00
19748;BME280;10032;51.386;12.516;2023-04-23T00:31:04;99356.66;;;15.51;100.00
19748;BME280;10032;51.386;12.516;2023-04-23T00:33:29;99367.56;;;15.51;100.00
19748;BME280;10032;51.386;12.516;2023-04-23T00:35:55;99360.78;;;15.49;100.00
19748;BME280;10032;51.386;12.516;2023-04-23T00:38:20;99362.19;;;15.46;100.00
19748;BME280;10032;51.386;12.516;2023-04-23T00:40:46;99363.59;;;15.44;100.00
19748;BME280;10032;51.386;12.516;2023-04-23T00:43:11;99362.00;;;15.43;100.00
19748;BME280;10032;51.386;12.516;2023-04-23T00:45:37;99362.28;;;15.41;100.00
19748;BME280;10032;51.386;12.516;2023-04-23T00:48:03;99366.63;;;15.42;100.00
19748;BME280;10032;51.386;12.516;2023-04-23T00:50:30;99371.88;;;15.39;100.00
19748;BME280;10032;51.386;12.516;2023-04-23T00:52:55;99361.78;;;15.39;100.00
19748;BME280;10032;51.386;12.516;2023-04-23T00:55:20;99366.41;;;15.39;100.00
19748;BME280;10032;51.386;12.516;2023-04-23T00:57:46;99367.84;;;15.36;100.00
19748;BME280;10032;51.386;12.516;2023-04-23T01:00:31;99363.97;;;15.37;100.00
19748;BME280;10032;51.386;12.516;2023-04-23T01:02:57;99363.19;;;15.37;100.00
19748;BME280;10032;51.386;12.516;2023-04-23T01:05:23;99359.34;;;15.38;100.00
19748;BME280;10032;51.386;12.516;2023-04-23T01:07:48;99357.78;;;15.32;100.00
19748;BME280;10032;51.386;12.516;2023-04-23T01:10:15;99357.53;;;15.33;100.00
19748;BME280;10032;51.386;12.516;2023-04-23T01:12:41;99349.84;;;15.35;100.00
19748;BME280;10032;51.386;12.516;2023-04-23T01:15:07;99348.72;;;15.36;100.00
19748;BME280;10032;51.386;12.516;2023-04-23T01:17:33;99350.66;;;15.36;100.00
19748;BME280;10032;51.386;12.516;2023-04-23T01:19:59;99358.31;;;15.34;100.00
19748;BME280;10032;51.386;12.516;2023-04-23T01:22:24;99352.06;;;15.33;100.00
19748;BME280;10032;51.386;12.516;2023-04-23T01:24:51;99355.06;;;15.32;100.00
19748;BME280;10032;51.386;12.516;2023-04-23T01:27:16;99356.97;;;15.31;100.00
19748;BME280;10032;51.386;12.516;2023-04-23T01:29:44;99352.84;;;15.34;100.00
19748;BME280;10032;51.386;12.516;2023-04-23T01:32:10;99351.00;;;15.29;100.00
19748;BME280;10032;51.386;12.516;2023-04-23T01:34:36;99354.84;;;15.28;100.00
19748;BME280;10032;51.386;12.516;2023-04-23T01:37:02;99342.91;;;15.24;100.00
19748;BME280;10032;51.386;12.516;2023-04-23T01:39:28;99345.94;;;15.23;100.00
19748;BME280;10032;51.386;12.516;2023-04-23T01:41:54;99344.81;;;15.24;100.00
19748;BME280;10032;51.386;12.516;2023-04-23T01:44:19;99345.94;;;15.23;100.00
19748;BME280;10032;51.386;12.516;2023-04-23T01:46:46;99346.75;;;15.23;100.00
19748;BME280;10032;51.386;12.516;2023-04-23T01:49:12;99342.91;;;15.24;100.00
19748;BME280;10032;51.386;12.516;2023-04-23T01:51:37;99336.34;;;15.25;100.00
19748;BME280;10032;51.386;12.516;2023-04-23T01:54:03;99340.47;;;15.23;100.00
19748;BME280;10032;51.386;12.516;2023-04-23T01:56:28;99341.59;;;15.22;100.00
19748;BME280;10032;51.386;12.516;2023-04-23T01:58:55;99336.91;;;15.22;100.00
19748;BME280;10032;51.386;12.516;2023-04-23T02:01:20;99331.78;;;15.21;100.00
19748;BME280;10032;51.386;12.516;2023-04-23T02:03:48;99334.81;;;15.19;100.00
19748;BME280;10032;51.386;12.516;2023-04-23T02:06:13;99330.75;;;15.17;100.00
19748;BME280;10032;51.386;12.516;2023-04-23T02:08:39;99326.41;;;15.16;100.00
19748;BME280;10032;51.386;12.516;2023-04-23T02:11:05;99322.06;;;15.15;100.00
19748;BME280;10032;51.386;12.516;2023-04-23T02:13:33;99318.81;;;15.13;100.00
19748;BME280;10032;51.386;12.516;2023-04-23T02:15:59;99320.75;;;15.12;100.00
19748;BME280;10032;51.386;12.516;2023-04-23T02:18:24;99327.81;;;15.13;100.00
19748;BME280;10032;51.386;12.516;2023-04-23T02:20:49;99323.47;;;15.12;100.00
19748;BME280;10032;51.386;12.516;2023-04-23T02:23:15;99315.38;;;15.07;100.00
19748;BME280;10032;51.386;12.516;2023-04-23T02:25:40;99315.97;;;15.04;100.00
19748;BME280;10032;51.386;12.516;2023-04-23T02:28:07;99319.81;;;15.03;100.00
19748;BME280;10032;51.386;12.516;2023-04-23T02:30:34;99311.72;;;14.98;100.00
19748;BME280;10032;51.386;12.516;2023-04-23T02:32:59;99308.25;;;14.93;100.00
19748;BME280;10032;51.386;12.516;2023-04-23T02:35:25;99315.63;;;14.92;100.00
19748;BME280;10032;51.386;12.516;2023-04-23T02:37:52;99308.25;;;14.93;100.00
19748;BME280;10032;51.386;12.516;2023-04-23T02:40:18;99312.63;;;14.94;100.00
19748;BME280;10032;51.386;12.516;2023-04-23T02:42:44;99311.22;;;14.96;100.00
19748;BME280;10032;51.386;12.516;2023-04-23T02:45:10;99316.97;;;14.95;100.00
19748;BME280;10032;51.386;12.516;2023-04-23T02:47:37;99310.97;;;14.93;100.00
19748;BME280;10032;51.386;12.516;2023-04-23T02:50:04;99307.44;;;14.92;100.00
19748;BME280;10032;51.386;12.516;2023-04-23T02:52:31;99308.03;;;14.89;100.00
19748;BME280;10032;51.386;12.516;2023-04-23T02:55:01;99311.88;;;14.88;100.00
19748;BME280;10032;51.386;12.516;2023-04-23T02:57:27;99311.06;;;14.88;100.00
19748;BME280;10032;51.386;12.516;2023-04-23T02:59:53;99302.56;;;14.89;100.00
19748;BME280;10032;51.386;12.516;2023-04-23T03:02:18;99310.25;;;14.87;100.00
19748;BME280;10032;51.386;12.516;2023-04-23T03:04:44;99301.03;;;14.83;100.00
19748;BME280;10032;51.386;12.516;2023-04-23T03:07:09;99299.50;;;14.77;100.00
19748;BME280;10032;51.386;12.516;2023-04-23T03:09:37;99301.13;;;14.78;100.00
19748;BME280;10032;51.386;12.516;2023-04-23T03:12:03;99297.91;;;14.76;100.00
19748;BME280;10032;51.386;12.516;2023-04-23T03:14:28;99294.88;;;14.78;100.00
19748;BME280;10032;51.386;12.516;2023-04-23T03:16:54;99295.16;;;14.76;100.00
19748;BME280;10032;51.386;12.516;2023-04-23T03:19:19;99301.41;;;14.77;100.00
19748;BME280;10032;51.386;12.516;2023-04-23T03:21:45;99300.09;;;14.74;100.00
19748;BME280;10032;51.386;12.516;2023-04-23T03:24:12;99299.00;;;14.75;100.00
19748;BME280;10032;51.386;12.516;2023-04-23T03:26:37;99294.06;;;14.77;100.00
19748;BME280;10032;51.386;12.516;2023-04-23T03:29:03;99304.16;;;14.77;100.00
19748;BME280;10032;51.386;12.516;2023-04-23T03:31:30;99294.88;;;14.78;100.00
19748;BME280;10032;51.386;12.516;2023-04-23T03:33:55;99296.78;;;14.77;100.00
19748;BME280;10032;51.386;12.516;2023-04-23T03:36:21;99299.31;;;14.74;100.00
19748;BME280;10032;51.386;12.516;2023-04-23T03:38:46;99297.97;;;14.71;100.00
19748;BME280;10032;51.386;12.516;2023-04-23T03:41:11;99292.81;;;14.70;100.00
19748;BME280;10032;51.386;12.516;2023-04-23T03:43:37;99300.69;;;14.71;100.00
19748;BME280;10032;51.386;12.516;2023-04-23T03:46:02;99301.81;;;14.70;100.00
19748;BME280;10032;51.386;12.516;2023-04-23T03:48:28;99294.72;;;14.69;100.00
19748;BME280;10032;51.386;12.516;2023-04-23T03:50:54;99288.19;;;14.70;100.00
19748;BME280;10032;51.386;12.516;2023-04-23T03:53:19;99292.00;;;14.69;100.00
19748;BME280;10032;51.386;12.516;2023-04-23T03:55:45;99290.38;;;14.68;100.00
19748;BME280;10032;51.386;12.516;2023-04-23T03:58:11;99294.50;;;14.66;100.00
19748;BME280;10032;51.386;12.516;2023-04-23T04:00:36;99291.00;;;14.65;100.00
19748;BME280;10032;51.386;12.516;2023-04-23T04:03:02;99296.66;;;14.69;100.00
19748;BME280;10032;51.386;12.516;2023-04-23T04:05:28;99296.94;;;14.67;100.00
19748;BME280;10032;51.386;12.516;2023-04-23T04:07:53;99295.84;;;14.68;100.00
19748;BME280;10032;51.386;12.516;2023-04-23T04:10:20;99296.44;;;14.65;100.00
19748;BME280;10032;51.386;12.516;2023-04-23T04:12:45;99296.66;;;14.69;100.00
19748;BME280;10032;51.386;12.516;2023-04-23T04:15:13;99298.84;;;14.67;100.00
19748;BME280;10032;51.386;12.516;2023-04-23T04:17:38;99297.44;;;14.69;100.00
19748;BME280;10032;51.386;12.516;2023-04-23T04:20:05;99301.81;;;14.70;100.00
19748;BME280;10032;51.386;12.516;2023-04-23T04:22:32;99301.22;;;14.73;100.00
19748;BME280;10032;51.386;12.516;2023-04-23T04:24:58;99302.91;;;14.69;100.00
19748;BME280;10032;51.386;12.516;2023-04-23T04:27:23;99297.16;;;14.71;100.00
19748;BME280;10032;51.386;12.516;2023-04-23T04:29:48;99303.44;;;14.71;100.00
19748;BME280;10032;51.386;12.516;2023-04-23T04:32:14;99311.00;;;14.74;100.00
19748;BME280;10032;51.386;12.516;2023-04-23T04:34:40;99308.81;;;14.76;100.00
19748;BME280;10032;51.386;12.516;2023-04-23T04:37:05;99312.03;;;14.78;100.00
19748;BME280;10032;51.386;12.516;2023-04-23T04:39:31;99315.88;;;14.77;100.00
19748;BME280;10032;51.386;12.516;2023-04-23T04:41:57;99311.25;;;14.78;100.00
19748;BME280;10032;51.386;12.516;2023-04-23T04:44:24;99307.97;;;14.76;100.00
19748;BME280;10032;51.386;12.516;2023-04-23T04:46:49;99312.66;;;14.75;100.00
19748;BME280;10032;51.386;12.516;2023-04-23T04:49:15;99307.97;;;14.76;100.00
19748;BME280;10032;51.386;12.516;2023-04-23T04:51:43;99310.13;;;14.79;100.00
19748;BME280;10032;51.386;12.516;2023-04-23T04:54:09;99305.78;;;14.78;100.00
19748;BME280;10032;51.386;12.516;2023-04-23T04:56:34;99307.69;;;14.77;100.00
19748;BME280;10032;51.386;12.516;2023-04-23T04:59:00;99306.28;;;14.80;100.00
19748;BME280;10032;51.386;12.516;2023-04-23T05:01:26;99307.63;;;14.82;100.00
19748;BME280;10032;51.386;12.516;2023-04-23T05:03:53;99308.41;;;14.83;100.00
19748;BME280;10032;51.386;12.516;2023-04-23T05:06:19;99309.72;;;14.85;100.00
19748;BME280;10032;51.386;12.516;2023-04-23T05:08:44;99316.28;;;14.84;100.00
19748;BME280;10032;51.386;12.516;2023-04-23T05:11:18;99317.91;;;14.85;100.00
19748;BME280;10032;51.386;12.516;2023-04-23T05:13:47;99319.22;;;14.88;100.00
19748;BME280;10032;51.386;12.516;2023-04-23T05:16:12;99323.91;;;14.87;100.00
19748;BME280;10032;51.386;12.516;2023-04-23T05:18:39;99317.91;;;14.85;100.00
19748;BME280;10032;51.386;12.516;2023-04-23T05:21:05;99321.16;;;14.87;100.00
19748;BME280;10032;51.386;12.516;2023-04-23T05:23:33;99316.50;;;14.88;100.00
19748;BME280;10032;51.386;12.516;2023-04-23T05:25:59;99321.97;;;14.88;100.00
19748;BME280;10032;51.386;12.516;2023-04-23T05:28:27;99322.78;;;14.88;100.00
19748;BME280;10032;51.386;12.516;2023-04-23T05:30:53;99323.59;;;14.89;100.00
19748;BME280;10032;51.386;12.516;2023-04-23T05:33:18;99324.41;;;14.89;100.00
19748;BME280;10032;51.386;12.516;2023-04-23T05:35:44;99326.00;;;14.90;100.00
19748;BME280;10032;51.386;12.516;2023-04-23T05:38:09;99327.66;;;14.91;100.00
19748;BME280;10032;51.386;12.516;2023-04-23T05:40:35;99333.13;;;14.91;100.00
19748;BME280;10032;51.386;12.516;2023-04-23T05:43:00;99339.66;;;14.90;100.00
19748;BME280;10032;51.386;12.516;2023-04-23T05:45:26;99339.97;;;14.89;100.00
19748;BME280;10032;51.386;12.516;2023-04-23T05:47:51;99344.59;;;14.88;100.00
19748;BME280;10032;51.386;12.516;2023-04-23T05:50:18;99345.94;;;14.91;100.00
19748;BME280;10032;51.386;12.516;2023-04-23T05:52:43;99345.34;;;14.94;100.00
19748;BME280;10032;51.386;12.516;2023-04-23T05:55:09;99349.59;;;15.00;100.00
19748;BME280;10032;51.386;12.516;2023-04-23T05:57:36;99353.03;;;15.05;100.00
19748;BME280;10032;51.386;12.516;2023-04-23T06:00:03;99355.59;;;15.15;100.00
19748;BME280;10032;51.386;12.516;2023-04-23T06:02:29;99353.81;;;15.24;100.00
19748;BME280;10032;51.386;12.516;2023-04-23T06:04:55;99359.13;;;15.34;100.00
19748;BME280;10032;51.386;12.516;2023-04-23T06:07:21;99357.94;;;15.40;100.00
19748;BME280;10032;51.386;12.516;2023-04-23T06:09:46;99371.22;;;15.47;100.00
19748;BME280;10032;51.386;12.516;2023-04-23T06:12:12;99366.44;;;15.52;100.00
19748;BME280;10032;51.386;12.516;2023-04-23T06:14:37;99366.84;;;15.59;100.00
19748;BME280;10032;51.386;12.516;2023-04-23T06:17:03;99363.03;;;15.60;100.00
19748;BME280;10032;51.386;12.516;2023-04-23T06:19:28;99366.16;;;15.67;100.00
19748;BME280;10032;51.386;12.516;2023-04-23T06:21:53;99366.66;;;15.69;100.00
19748;BME280;10032;51.386;12.516;2023-04-23T06:24:19;99369.50;;;15.78;100.00
19748;BME280;10032;51.386;12.516;2023-04-23T06:26:44;99372.97;;;15.83;100.00
19748;BME280;10032;51.386;12.516;2023-04-23T06:29:10;99363.06;;;15.87;100.00
19748;BME280;10032;51.386;12.516;2023-04-23T06:31:35;99370.72;;;15.99;100.00
19748;BME280;10032;51.386;12.516;2023-04-23T06:34:01;99367.09;;;16.03;100.00
19748;BME280;10032;51.386;12.516;2023-04-23T06:36:26;99368.13;;;16.07;100.00
19748;BME280;10032;51.386;12.516;2023-04-23T06:38:51;99367.50;;;16.10;100.00
19748;BME280;10032;51.386;12.516;2023-04-23T06:41:17;99377.72;;;16.18;100.00
19748;BME280;10032;51.386;12.516;2023-04-23T06:43:42;99375.00;;;16.18;100.00
19748;BME280;10032;51.386;12.516;2023-04-23T06:46:10;99375.97;;;16.22;100.00
19748;BME280;10032;51.386;12.516;2023-04-23T06:48:35;99383.59;;;16.25;100.00
19748;BME280;10032;51.386;12.516;2023-04-23T06:51:01;99373.97;;;16.28;100.00
19748;BME280;10032;51.386;12.516;2023-04-23T06:53:27;99377.53;;;16.28;100.00
19748;BME280;10032;51.386;12.516;2023-04-23T06:55:52;99376.91;;;16.31;100.00
19748;BME280;10032;51.386;12.516;2023-04-23T06:58:18;99383.31;;;16.40;100.00
19748;BME280;10032;51.386;12.516;2023-04-23T07:00:43;99383.78;;;16.42;100.00
19748;BME280;10032;51.386;12.516;2023-04-23T07:03:09;99378.03;;;16.44;100.00
19748;BME280;10032;51.386;12.516;2023-04-23T07:05:34;99383.69;;;16.47;100.00
19748;BME280;10032;51.386;12.516;2023-04-23T07:08:00;99377.72;;;16.45;100.00
19748;BME280;10032;51.386;12.516;2023-04-23T07:10:25;99373.97;;;16.41;100.00
19748;BME280;10032;51.386;12.516;2023-04-23T07:12:50;99374.81;;;16.42;100.00
19748;BME280;10032;51.386;12.516;2023-04-23T07:15:16;99370.66;;;16.44;100.00
19748;BME280;10032;51.386;12.516;2023-04-23T07:17:41;99368.91;;;16.48;100.00
19748;BME280;10032;51.386;12.516;2023-04-23T07:20:07;99376.19;;;16.53;100.00
19748;BME280;10032;51.386;12.516;2023-04-23T07:22:33;99377.50;;;16.55;100.00
19748;BME280;10032;51.386;12.516;2023-04-23T07:25:02;99371.28;;;16.63;100.00
19748;BME280;10032;51.386;12.516;2023-04-23T07:27:29;99391.75;;;16.66;100.00
19748;BME280;10032;51.386;12.516;2023-04-23T07:29:55;99390.75;;;16.62;100.00
19748;BME280;10032;51.386;12.516;2023-04-23T07:32:20;99392.78;;;16.56;100.00
19748;BME280;10032;51.386;12.516;2023-04-23T07:34:48;99387.81;;;16.58;100.00
19748;BME280;10032;51.386;12.516;2023-04-23T07:37:13;99392.78;;;16.56;100.00
19748;BME280;10032;51.386;12.516;2023-04-23T07:39:38;99394.03;;;16.50;100.00
19748;BME280;10032;51.386;12.516;2023-04-23T07:42:04;99395.63;;;16.51;100.00
19748;BME280;10032;51.386;12.516;2023-04-23T07:44:29;99403.03;;;16.51;100.00
19748;BME280;10032;51.386;12.516;2023-04-23T07:46:55;99407.63;;;16.42;100.00
19748;BME280;10032;51.386;12.516;2023-04-23T07:49:20;99407.19;;;16.21;100.00
19748;BME280;10032;51.386;12.516;2023-04-23T07:51:47;99412.03;;;16.11;100.00
19748;BME280;10032;51.386;12.516;2023-04-23T07:54:12;99411.84;;;16.07;100.00
19748;BME280;10032;51.386;12.516;2023-04-23T07:56:38;99410.22;;;16.06;100.00
19748;BME280;10032;51.386;12.516;2023-04-23T07:59:03;99406.78;;;16.14;100.00
19748;BME280;10032;51.386;12.516;2023-04-23T08:01:31;99404.44;;;16.21;100.00
19748;BME280;10032;51.386;12.516;2023-04-23T08:03:57;99410.94;;;16.25;100.00
19748;BME280;10032;51.386;12.516;2023-04-23T08:06:25;99404.22;;;16.31;100.00
19748;BME280;10032;51.386;12.516;2023-04-23T08:08:51;99403.75;;;16.29;100.00
19748;BME280;10032;51.386;12.516;2023-04-23T08:11:17;99412.94;;;16.33;100.00
19748;BME280;10032;51.386;12.516;2023-04-23T08:13:42;99412.94;;;16.33;100.00
19748;BME280;10032;51.386;12.516;2023-04-23T08:16:08;99416.78;;;16.32;100.00
19748;BME280;10032;51.386;12.516;2023-04-23T08:18:33;99421.47;;;16.45;100.00
19748;BME280;10032;51.386;12.516;2023-04-23T08:20:59;99426.84;;;16.50;100.00
19748;BME280;10032;51.386;12.516;2023-04-23T08:23:24;99424.09;;;16.50;100.00
19748;BME280;10032;51.386;12.516;2023-04-23T08:25:50;99425.81;;;16.46;100.00
19748;BME280;10032;51.386;12.516;2023-04-23T08:28:17;99419.03;;;16.44;100.00
19748;BME280;10032;51.386;12.516;2023-04-23T08:30:43;99420.66;;;16.45;100.00
19748;BME280;10032;51.386;12.516;2023-04-23T08:33:09;99421.47;;;16.45;100.00
19748;BME280;10032;51.386;12.516;2023-04-23T08:35:35;99423.91;;;16.47;100.00
19748;BME280;10032;51.386;12.516;2023-04-23T08:38:00;99426.03;;;16.50;100.00
19748;BME280;10032;51.386;12.516;2023-04-23T08:40:30;99424.00;;;16.55;100.00
19748;BME280;10032;51.386;12.516;2023-04-23T08:45:21;99425.50;;;16.61;100.00
19748;BME280;10032;51.386;12.516;2023-04-23T08:47:46;99427.31;;;16.66;100.00
19748;BME280;10032;51.386;12.516;2023-04-23T08:50:14;99435.13;;;16.72;100.00
19748;BME280;10032;51.386;12.516;2023-04-23T08:52:45;99427.81;;;16.81;100.00
19748;BME280;10032;51.386;12.516;2023-04-23T08:55:12;99441.38;;;16.73;100.00
19748;BME280;10032;51.386;12.516;2023-04-23T08:57:40;99446.84;;;16.73;100.00
19748;BME280;10032;51.386;12.516;2023-04-23T09:00:10;99435.13;;;16.59;100.00
19748;BME280;10032;51.386;12.516;2023-04-23T09:02:41;99449.50;;;16.64;100.00
19748;BME280;10032;51.386;12.516;2023-04-23T09:05:07;99450.09;;;16.75;100.00
19748;BME280;10032;51.386;12.516;2023-04-23T09:07:33;99445.19;;;16.85;100.00
19748;BME280;10032;51.386;12.516;2023-04-23T09:10:01;99452.28;;;17.00;100.00
19748;BME280;10032;51.386;12.516;2023-04-23T09:12:27;99450.56;;;17.26;100.00
19748;BME280;10032;51.386;12.516;2023-04-23T09:14:53;99458.38;;;17.54;100.00
19748;BME280;10032;51.386;12.516;2023-04-23T09:17:19;99450.47;;;17.75;100.00
19748;BME280;10032;51.386;12.516;2023-04-23T09:19:45;99443.41;;;17.82;100.00
19748;BME280;10032;51.386;12.516;2023-04-23T09:22:10;99442.25;;;18.05;100.00
19748;BME280;10032;51.386;12.516;2023-04-23T09:24:40;99443.66;;;18.33;100.00
19748;BME280;10032;51.386;12.516;2023-04-23T09:27:06;99438.56;;;18.40;100.00
19748;BME280;10032;51.386;12.516;2023-04-23T09:29:31;99439.34;;;18.41;100.00
19748;BME280;10032;51.386;12.516;2023-04-23T09:32:07;99445.69;;;18.58;100.00
19748;BME280;10032;51.386;12.516;2023-04-23T09:34:36;99454.06;;;18.53;100.00
19748;BME280;10032;51.386;12.516;2023-04-23T09:37:03;99459.44;;;18.67;100.00
19748;BME280;10032;51.386;12.516;2023-04-23T09:39:29;99447.97;;;18.56;100.00
19748;BME280;10032;51.386;12.516;2023-04-23T09:42:02;99454.88;;;18.23;100.00
19748;BME280;10032;51.386;12.516;2023-04-23T09:44:31;99445.28;;;18.04;100.00
19748;BME280;10032;51.386;12.516;2023-04-23T09:47:05;99448.50;;;17.97;100.00
19748;BME280;10032;51.386;12.516;2023-04-23T09:49:31;99456.50;;;17.63;100.00
19748;BME280;10032;51.386;12.516;2023-04-23T09:52:05;99454.81;;;17.76;100.00
19748;BME280;10032;51.386;12.516;2023-04-23T09:54:30;99455.06;;;18.18;100.00
19748;BME280;10032;51.386;12.516;2023-04-23T09:56:57;99451.38;;;18.31;100.00
19748;BME280;10032;51.386;12.516;2023-04-23T09:59:28;99447.47;;;18.63;100.00
19748;BME280;10032;51.386;12.516;2023-04-23T10:01:54;99450.28;;;18.97;100.00
19748;BME280;10032;51.386;12.516;2023-04-23T10:04:22;99450.00;;;19.32;100.00
19748;BME280;10032;51.386;12.516;2023-04-23T10:06:53;99455.03;;;19.39;100.00
19748;BME280;10032;51.386;12.516;2023-04-23T10:09:20;99437.88;;;19.59;100.00
19748;BME280;10032;51.386;12.516;2023-04-23T10:11:50;99440.91;;;19.74;100.00
19748;BME280;10032;51.386;12.516;2023-04-23T10:14:16;99440.84;;;20.08;100.00
19748;BME280;10032;51.386;12.516;2023-04-23T10:16:43;99447.19;;;19.92;100.00
19748;BME280;10032;51.386;12.516;2023-04-23T10:19:13;99445.75;;;19.77;100.00
19748;BME280;10032;51.386;12.516;2023-04-23T10:21:40;99441.91;;;19.61;100.00
19748;BME280;10032;51.386;12.516;2023-04-23T10:24:08;99442.75;;;19.36;100.00
19748;BME280;10032;51.386;12.516;2023-04-23T10:26:37;99439.16;;;19.19;100.00
19748;BME280;10032;51.386;12.516;2023-04-23T10:29:05;99442.22;;;19.09;100.00
19748;BME280;10032;51.386;12.516;2023-04-23T10:31:33;99442.44;;;19.29;100.00
19748;BME280;10032;51.386;12.516;2023-04-23T10:34:01;99442.06;;;19.39;100.00
19748;BME280;10032;51.386;12.516;2023-04-23T10:36:31;99439.66;;;19.46;100.00
19748;BME280;10032;51.386;12.516;2023-04-23T10:38:57;99439.63;;;19.63;100.00
19748;BME280;10032;51.386;12.516;2023-04-23T10:41:34;99440.44;;;19.72;100.00
19748;BME280;10032;51.386;12.516;2023-04-23T10:44:02;99432.69;;;19.66;100.00
19748;BME280;10032;51.386;12.516;2023-04-23T10:46:28;99444.97;;;19.60;100.00
19748;BME280;10032;51.386;12.516;2023-04-23T10:49:13;99440.75;;;19.71;100.00
19748;BME280;10032;51.386;12.516;2023-04-23T10:51:40;99433.34;;;20.17;100.00
19748;BME280;10032;51.386;12.516;2023-04-23T10:54:07;99423.44;;;20.62;100.00
19748;BME280;10032;51.386;12.516;2023-04-23T10:56:39;99428.75;;;20.67;100.00
19748;BME280;10032;51.386;12.516;2023-04-23T10:59:26;99418.59;;;21.09;100.00
19748;BME280;10032;51.386;12.516;2023-04-23T11:01:55;99409.09;;;21.39;100.00
19748;BME280;10032;51.386;12.516;2023-04-23T11:04:23;99421.91;;;21.55;100.00
19748;BME280;10032;51.386;12.516;2023-04-23T11:07:05;99420.22;;;21.95;100.00
19748;BME280;10032;51.386;12.516;2023-04-23T11:09:47;99429.53;;;22.03;99.87
19748;BME280;10032;51.386;12.516;2023-04-23T11:14:54;99427.13;;;22.13;93.81
19748;BME280;10032;51.386;12.516;2023-04-23T11:20:11;99434.84;;;22.32;92.73
19748;BME280;10032;51.386;12.516;2023-04-23T11:25:14;99420.22;;;23.03;90.08
19748;BME280;10032;51.386;12.516;2023-04-23T11:27:41;99416.19;;;23.01;85.79
19748;BME280;10032;51.386;12.516;2023-04-23T11:32:38;99416.09;;;22.97;82.85
19748;BME280;10032;51.386;12.516;2023-04-23T11:35:06;99402.78;;;22.75;80.17
19748;BME280;10032;51.386;12.516;2023-04-23T11:37:31;99413.88;;;23.03;80.80
19748;BME280;10032;51.386;12.516;2023-04-23T11:40:05;99421.31;;;23.14;79.00
19748;BME280;10032;51.386;12.516;2023-04-23T11:42:40;99414.16;;;23.37;77.89
19748;BME280;10032;51.386;12.516;2023-04-23T11:45:14;99407.22;;;23.43;74.92
19748;BME280;10032;51.386;12.516;2023-04-23T11:47:39;99409.31;;;23.62;75.88
19748;BME280;10032;51.386;12.516;2023-04-23T11:50:05;99402.34;;;23.52;71.96
19748;BME280;10032;51.386;12.516;2023-04-23T11:52:31;99401.59;;;23.67;72.74
19748;BME280;10032;51.386;12.516;2023-04-23T11:55:01;99403.94;;;23.53;71.07
19748;BME280;10032;51.386;12.516;2023-04-23T11:57:27;99406.88;;;23.88;70.94
19748;BME280;10032;51.386;12.516;2023-04-23T11:59:52;99401.50;;;23.79;67.84
19748;BME280;10032;51.386;12.516;2023-04-23T12:02:18;99404.00;;;23.41;65.03
19748;BME280;10032;51.386;12.516;2023-04-23T12:04:43;99402.13;;;23.06;64.29
19748;BME280;10032;51.386;12.516;2023-04-23T12:07:09;99396.31;;;23.35;64.65
19748;BME280;10032;51.386;12.516;2023-04-23T12:09:34;99394.47;;;23.82;65.15
19748;BME280;10032;51.386;12.516;2023-04-23T12:12:00;99401.84;;;24.05;60.00
19748;BME280;10032;51.386;12.516;2023-04-23T12:14:28;99398.44;;;23.69;57.92
19748;BME280;10032;51.386;12.516;2023-04-23T12:16:55;99397.16;;;23.23;57.29
19748;BME280;10032;51.386;12.516;2023-04-23T12:19:26;99398.56;;;23.17;57.84
19748;BME280;10032;51.386;12.516;2023-04-23T12:21:54;99403.13;;;23.53;59.14
19748;BME280;10032;51.386;12.516;2023-04-23T12:24:24;99405.91;;;23.25;56.43
19748;BME280;10032;51.386;12.516;2023-04-23T12:26:58;99399.47;;;23.49;57.88
19748;BME280;10032;51.386;12.516;2023-04-23T12:29:25;99390.78;;;23.62;57.16
19748;BME280;10032;51.386;12.516;2023-04-23T12:31:57;99398.16;;;23.31;55.29
19748;BME280;10032;51.386;12.516;2023-04-23T12:34:23;99392.13;;;23.41;55.84
19748;BME280;10032;51.386;12.516;2023-04-23T12:36:53;99385.75;;;23.95;56.39
19748;BME280;10032;51.386;12.516;2023-04-23T12:39:34;99388.41;;;24.38;54.84
19748;BME280;10032;51.386;12.516;2023-04-23T12:42:01;99386.78;;;24.53;54.67
19748;BME280;10032;51.386;12.516;2023-04-23T12:44:30;99383.84;;;24.46;52.24
19748;BME280;10032;51.386;12.516;2023-04-23T12:46:58;99378.94;;;24.39;51.84
19748;BME280;10032;51.386;12.516;2023-04-23T12:49:25;99370.44;;;24.48;51.98
19748;BME280;10032;51.386;12.516;2023-04-23T12:51:52;99366.09;;;24.62;51.59